Justice, Illinois
Current Conditions -  °F | °C
As of 1:53 PM on Tuesday 21 Oct 2014 (Local Time) from KMDW Reporting Station
Overcast Overcast  
Wind Chill: 53°   Ceiling: 3900
Heat Index: 53°   Visibility: 10mi
Dew Point: 42°   Wind: 17mph
Humidity: 66%   Direction: 350°N
Pressure: 30.17"   Gusts: NA
Location:  41.75°N, 87.84°W
Report Text: KMDW 211853Z 35015KT 10SM FEW022 OVC039 12/06 A3017 RMK AO2 SLP219 T01170056
Loading
Personal Weather Stations






























Interactive Weather Map
Tropical Storm Tracking
New forecast layout! Learn more

10-Day Weather Forecast

Advertisements
Track Severe Weather on mobile